createdAt,value
2019-01-21T00:01:59.936Z,21.20
2019-01-21T00:04:27.533Z,20.43
2019-01-21T00:06:55.193Z,19.23
2019-01-21T00:09:22.269Z,19.90
2019-01-21T00:11:49.707Z,19.67
2019-01-21T00:14:17.514Z,20.92
2019-01-21T00:16:45.042Z,19.82
2019-01-21T00:19:12.353Z,19.48
2019-01-21T00:21:39.839Z,21.10
2019-01-21T00:24:07.526Z,22.32
2019-01-21T00:26:35.148Z,20.68
2019-01-21T00:29:02.322Z,22.50
2019-01-21T00:31:30.185Z,18.95
2019-01-21T00:33:57.594Z,19.25
2019-01-21T00:36:25.145Z,20.02
2019-01-21T00:38:52.836Z,15.80
2019-01-21T00:41:20.177Z,16.90
2019-01-21T00:43:47.884Z,17.27
2019-01-21T00:46:14.974Z,18.45
2019-01-21T00:48:42.302Z,18.42
2019-01-21T00:51:09.906Z,20.55
2019-01-21T00:53:37.048Z,19.62
2019-01-21T00:56:04.560Z,19.55
2019-01-21T00:58:31.600Z,16.95
2019-01-21T01:00:58.961Z,17.85
2019-01-21T01:03:25.862Z,16.48
2019-01-21T01:05:53.354Z,16.37
2019-01-21T01:08:20.437Z,18.87
2019-01-21T01:10:47.777Z,17.92
2019-01-21T01:13:15.354Z,16.05
2019-01-21T01:15:42.699Z,15.98
2019-01-21T01:18:10.508Z,16.80
2019-01-21T01:20:38.312Z,16.85
2019-01-21T01:23:05.857Z,20.30
2019-01-21T01:25:33.929Z,18.25
2019-01-21T01:28:00.981Z,19.45
2019-01-21T01:30:28.677Z,18.05
2019-01-21T01:32:56.032Z,17.32
2019-01-21T01:35:23.071Z,19.40
2019-01-21T01:37:50.781Z,18.92
2019-01-21T01:40:19.164Z,15.50
2019-01-21T01:42:46.593Z,19.20
2019-01-21T01:45:17.730Z,16.35
2019-01-21T01:47:45.168Z,20.10
2019-01-21T01:50:12.970Z,24.47
2019-01-21T01:52:40.686Z,23.57
2019-01-21T01:55:08.377Z,24.12
2019-01-21T01:57:35.901Z,19.98
2019-01-21T02:00:07.816Z,20.05
2019-01-21T02:02:35.387Z,17.65
2019-01-21T02:05:03.222Z,13.80
2019-01-21T02:07:30.970Z,16.25
2019-01-21T02:09:58.525Z,16.57
2019-01-21T02:12:25.971Z,15.53
2019-01-21T02:14:53.639Z,15.23
2019-01-21T02:17:21.002Z,15.43
2019-01-21T02:19:52.941Z,16.20
2019-01-21T02:22:22.465Z,15.88
2019-01-21T02:24:52.809Z,16.65
2019-01-21T02:27:49.642Z,16.20
2019-01-21T02:30:40.206Z,19.92
2019-01-21T02:34:04.553Z,19.02
2019-01-21T02:37:05.291Z,17.00
2019-01-21T02:39:50.401Z,16.77
2019-01-21T02:42:24.638Z,16.40
2019-01-21T02:45:00.380Z,15.93
2019-01-21T02:47:59.762Z,17.17
2019-01-21T02:51:01.400Z,16.02
2019-01-21T02:54:04.242Z,14.83
2019-01-21T02:57:13.613Z,14.90
2019-01-21T03:00:25.345Z,15.30
2019-01-21T03:03:20.017Z,15.65
2019-01-21T03:06:24.291Z,15.55
2019-01-21T03:09:33.215Z,14.23
2019-01-21T03:12:39.576Z,16.05
2019-01-21T03:15:46.319Z,15.43
2019-01-21T03:18:49.717Z,17.48
2019-01-21T03:22:04.634Z,18.87
2019-01-21T03:25:12.828Z,13.95
2019-01-21T03:28:06.560Z,15.35
2019-01-21T03:31:31.084Z,15.18
2019-01-21T03:34:27.670Z,14.60
2019-01-21T03:37:35.271Z,14.53
2019-01-21T03:40:47.854Z,15.23
2019-01-21T03:43:42.203Z,15.20
2019-01-21T03:46:34.050Z,17.02
2019-01-21T03:49:12.094Z,16.65
2019-01-21T03:52:16.015Z,17.98
2019-01-21T03:54:48.864Z,17.40
2019-01-21T03:57:34.968Z,16.65
2019-01-21T04:00:20.809Z,16.75
2019-01-21T04:03:31.410Z,21.73
2019-01-21T04:06:57.570Z,17.20
2019-01-21T04:09:38.999Z,17.37
2019-01-21T04:13:00.198Z,18.40
2019-01-21T04:15:58.449Z,19.05
2019-01-21T04:19:08.557Z,15.85
2019-01-21T04:22:22.809Z,17.50
2019-01-21T04:25:33.624Z,16.60
2019-01-21T04:28:24.686Z,15.80
2019-01-21T04:31:29.710Z,17.75
2019-01-21T04:34:34.185Z,16.23
2019-01-21T04:37:23.659Z,17.57
2019-01-21T04:40:23.006Z,15.30
2019-01-21T04:43:20.390Z,14.73
2019-01-21T04:46:35.245Z,17.50
2019-01-21T04:49:41.709Z,17.23
2019-01-21T04:52:55.553Z,17.25
2019-01-21T04:55:43.274Z,16.87
2019-01-21T04:58:35.375Z,17.30
2019-01-21T05:01:50.567Z,17.57
2019-01-21T05:04:37.897Z,15.68
2019-01-21T05:07:44.339Z,17.50
2019-01-21T05:10:37.232Z,16.73
2019-01-21T05:13:41.694Z,17.65
2019-01-21T05:16:44.828Z,16.93
2019-01-21T05:19:26.734Z,17.35
2019-01-21T05:22:18.327Z,16.52
2019-01-21T05:25:39.465Z,18.42
2019-01-21T05:28:57.570Z,15.45
2019-01-21T05:32:12.522Z,19.67
2019-01-21T05:35:16.333Z,32.90
2019-01-21T05:38:21.156Z,44.13
2019-01-21T05:41:33.317Z,32.80
2019-01-21T05:44:35.577Z,37.28
2019-01-21T05:47:36.834Z,38.25
2019-01-21T05:50:14.465Z,34.95
2019-01-21T05:53:50.612Z,37.25
2019-01-21T05:56:51.479Z,34.85
2019-01-21T06:00:14.358Z,33.63
2019-01-21T06:03:20.215Z,32.60
2019-01-21T06:06:19.064Z,30.90
2019-01-21T06:09:42.016Z,28.30
2019-01-21T06:12:50.102Z,29.05
2019-01-21T06:15:51.883Z,35.00
2019-01-21T06:19:02.390Z,30.32
2019-01-21T06:21:56.237Z,33.63
2019-01-21T06:24:57.993Z,31.50
2019-01-21T06:28:06.758Z,30.65
2019-01-21T06:31:06.414Z,24.90
2019-01-21T06:34:14.249Z,25.08
2019-01-21T06:36:48.468Z,33.70
2019-01-21T06:39:51.269Z,26.05
2019-01-21T06:43:03.361Z,23.42
2019-01-21T06:46:11.242Z,27.40
2019-01-21T06:49:24.945Z,28.45
2019-01-21T06:52:25.302Z,27.50
2019-01-21T06:55:26.660Z,30.52
2019-01-21T06:58:35.734Z,28.65
2019-01-21T07:01:52.168Z,30.68
2019-01-21T07:05:02.721Z,31.33
2019-01-21T07:08:12.878Z,29.87
2019-01-21T07:11:05.481Z,28.45
2019-01-21T07:13:57.097Z,32.88
2019-01-21T07:17:05.953Z,42.80
2019-01-21T07:20:30.116Z,37.20
2019-01-21T07:23:25.038Z,34.03
2019-01-21T07:26:23.280Z,32.88
2019-01-21T07:29:28.244Z,37.08
2019-01-21T07:32:25.025Z,35.60
2019-01-21T07:35:24.521Z,34.25
2019-01-21T07:38:48.453Z,31.85
2019-01-21T07:41:46.272Z,31.90
2019-01-21T07:44:32.325Z,25.97
2019-01-21T07:47:29.565Z,26.00
2019-01-21T07:50:41.727Z,31.90
2019-01-21T07:53:40.038Z,33.42
2019-01-21T07:57:00.648Z,32.60
2019-01-21T08:00:07.726Z,31.15
2019-01-21T08:03:00.729Z,33.08
2019-01-21T08:06:27.902Z,33.55
2019-01-21T08:09:50.957Z,28.30
2019-01-21T08:12:44.270Z,29.20
2019-01-21T08:15:42.477Z,33.78
2019-01-21T08:18:41.187Z,28.12
2019-01-21T08:21:28.593Z,26.33
2019-01-21T08:24:29.880Z,26.12
2019-01-21T08:27:22.213Z,24.35
2019-01-21T08:30:40.661Z,25.30
2019-01-21T08:33:54.137Z,28.87
2019-01-21T08:37:09.337Z,33.05
2019-01-21T08:40:14.065Z,31.17
2019-01-21T08:43:12.693Z,32.78
2019-01-21T08:46:16.526Z,35.45
2019-01-21T08:49:37.049Z,32.15
2019-01-21T08:52:58.007Z,20.82
2019-01-21T08:55:59.200Z,22.27
2019-01-21T08:58:55.277Z,21.75
2019-01-21T09:02:12.745Z,18.92
2019-01-21T09:05:18.396Z,20.32
2019-01-21T09:08:11.826Z,20.40
2019-01-21T09:11:22.233Z,19.42
2019-01-21T09:13:58.418Z,20.17
2019-01-21T09:17:16.287Z,19.73
2019-01-21T09:20:10.779Z,19.95
2019-01-21T09:22:51.066Z,22.20
2019-01-21T09:25:59.767Z,20.88
2019-01-21T09:28:50.712Z,20.23
2019-01-21T09:31:50.469Z,19.37
2019-01-21T09:34:30.556Z,22.48
2019-01-21T09:37:14.017Z,22.48
2019-01-21T09:40:15.822Z,21.73
2019-01-21T09:43:20.169Z,20.55
2019-01-21T09:46:28.202Z,20.00
2019-01-21T09:48:54.804Z,22.40
2019-01-21T09:51:23.646Z,39.83
2019-01-21T09:53:52.807Z,36.25
2019-01-21T09:56:20.462Z,39.35
2019-01-21T09:58:50.063Z,22.82
2019-01-21T10:01:17.509Z,20.15
2019-01-21T10:03:44.969Z,18.55
2019-01-21T10:06:13.916Z,18.37
2019-01-21T10:09:13.830Z,19.57
2019-01-21T10:12:05.711Z,22.17
2019-01-21T10:15:12.945Z,18.15
2019-01-21T10:18:22.025Z,21.33
2019-01-21T10:21:34.744Z,17.65
2019-01-21T10:25:05.154Z,18.23
2019-01-21T10:27:59.477Z,17.35
2019-01-21T10:30:52.526Z,18.80
2019-01-21T10:34:07.978Z,19.02
2019-01-21T10:37:03.910Z,21.50
2019-01-21T10:40:07.979Z,21.48
2019-01-21T10:42:55.992Z,20.43
2019-01-21T10:45:42.786Z,22.20
2019-01-21T10:48:19.441Z,18.50
2019-01-21T10:51:22.978Z,19.12
2019-01-21T10:54:00.685Z,18.98
2019-01-21T10:57:05.465Z,19.98
2019-01-21T10:59:56.369Z,17.95
2019-01-21T11:03:20.373Z,15.98
2019-01-21T11:06:05.740Z,18.27
2019-01-21T11:09:12.806Z,17.75
2019-01-21T11:12:37.670Z,16.45
2019-01-21T11:15:53.247Z,18.23
2019-01-21T11:18:42.781Z,16.97
2019-01-21T11:21:56.257Z,19.45
2019-01-21T11:25:23.490Z,21.20
2019-01-21T11:28:28.500Z,18.52
2019-01-21T11:31:30.725Z,20.27
2019-01-21T11:34:39.364Z,19.50
2019-01-21T11:37:45.242Z,20.27
2019-01-21T11:40:42.044Z,26.42
2019-01-21T11:43:36.533Z,21.77
2019-01-21T11:46:42.620Z,19.27
2019-01-21T11:49:32.794Z,23.00
2019-01-21T11:52:31.410Z,23.42
2019-01-21T11:55:29.218Z,19.42
2019-01-21T11:58:47.145Z,17.50
2019-01-21T12:01:27.466Z,18.12
2019-01-21T12:04:15.277Z,19.25
2019-01-21T12:07:11.062Z,19.50
2019-01-21T12:10:04.015Z,20.88
2019-01-21T12:13:00.674Z,20.27
2019-01-21T12:16:08.394Z,20.08
2019-01-21T12:19:22.138Z,20.43
2019-01-21T12:22:00.356Z,19.57
2019-01-21T12:24:41.420Z,19.60
2019-01-21T12:27:34.330Z,19.05
2019-01-21T12:30:40.047Z,18.25
2019-01-21T12:33:43.761Z,17.82
2019-01-21T12:36:23.818Z,18.70
2019-01-21T12:39:12.421Z,20.20
2019-01-21T12:42:25.785Z,19.48
2019-01-21T12:45:27.580Z,19.02
2019-01-21T12:48:05.681Z,17.70
2019-01-21T12:51:05.621Z,18.95
2019-01-21T12:54:00.112Z,21.23
2019-01-21T12:56:50.811Z,18.65
2019-01-21T12:59:36.770Z,16.10
2019-01-21T13:02:20.694Z,17.62
2019-01-21T13:05:04.417Z,19.17
2019-01-21T13:08:11.580Z,21.48
2019-01-21T13:10:55.776Z,17.42
2019-01-21T13:13:46.909Z,17.90
2019-01-21T13:16:54.777Z,21.17
2019-01-21T13:19:58.618Z,19.20
2019-01-21T13:23:02.330Z,17.37
2019-01-21T13:26:09.889Z,17.32
2019-01-21T13:29:08.384Z,19.55
2019-01-21T13:32:14.489Z,16.65
2019-01-21T13:35:36.235Z,17.70
2019-01-21T13:38:48.126Z,18.70
2019-01-21T13:41:58.376Z,22.02
2019-01-21T13:44:55.812Z,19.02
2019-01-21T13:47:31.806Z,19.82
2019-01-21T13:50:22.198Z,17.52
2019-01-21T13:53:29.753Z,16.55
2019-01-21T13:56:22.908Z,16.60
2019-01-21T13:59:24.085Z,17.40
2019-01-21T14:02:20.481Z,17.95
2019-01-21T14:05:31.060Z,17.73
2019-01-21T14:08:13.094Z,17.57
2019-01-21T14:10:58.526Z,17.92
2019-01-21T14:13:32.771Z,22.98
2019-01-21T14:16:22.178Z,20.08
2019-01-21T14:19:09.745Z,18.00
2019-01-21T14:22:14.596Z,18.57
2019-01-21T14:25:30.403Z,18.65
2019-01-21T14:28:48.607Z,16.85
2019-01-21T14:31:54.718Z,18.85
2019-01-21T14:34:59.130Z,17.73
2019-01-21T14:38:13.802Z,16.93
2019-01-21T14:41:24.380Z,16.00
2019-01-21T14:44:28.197Z,16.77
2019-01-21T14:47:40.878Z,16.70
2019-01-21T14:50:50.592Z,17.92
2019-01-21T14:53:50.658Z,21.20
2019-01-21T14:56:38.970Z,19.23
2019-01-21T14:59:33.162Z,20.97
2019-01-21T15:02:42.175Z,21.57
2019-01-21T15:05:45.643Z,17.82
2019-01-21T15:08:27.012Z,23.40
2019-01-21T15:11:39.873Z,19.23
2019-01-21T15:14:20.407Z,17.67
2019-01-21T15:17:26.786Z,19.52
2019-01-21T15:20:06.048Z,17.00
2019-01-21T15:23:23.370Z,20.35
2019-01-21T15:26:31.325Z,17.30
2019-01-21T15:29:29.531Z,19.75
2019-01-21T15:32:39.600Z,21.55
2019-01-21T15:35:37.231Z,19.67
2019-01-21T15:38:32.238Z,21.37
2019-01-21T15:41:35.209Z,21.40
2019-01-21T15:44:37.049Z,40.78
2019-01-21T15:47:29.900Z,34.03
2019-01-21T15:51:04.972Z,26.05
2019-01-21T15:53:37.493Z,25.95
2019-01-21T15:56:40.410Z,46.63
2019-01-21T15:59:33.061Z,29.50
2019-01-21T16:02:34.446Z,28.05
2019-01-21T16:05:12.533Z,26.70
2019-01-21T16:08:13.934Z,20.57
2019-01-21T16:10:56.010Z,24.00
2019-01-21T16:13:34.964Z,25.48
2019-01-21T16:16:20.912Z,37.33
2019-01-21T16:18:54.990Z,39.25
2019-01-21T16:21:50.714Z,32.85
2019-01-21T16:24:49.682Z,24.95
2019-01-21T16:27:41.982Z,24.63
2019-01-21T16:30:21.521Z,25.40
2019-01-21T16:33:20.783Z,26.75
2019-01-21T16:36:32.753Z,28.23
2019-01-21T16:39:20.018Z,25.95
2019-01-21T16:42:14.777Z,27.13
2019-01-21T16:44:43.850Z,23.42
2019-01-21T16:47:11.102Z,24.75
2019-01-21T16:49:38.933Z,28.60
2019-01-21T16:52:06.378Z,29.02
2019-01-21T16:54:34.253Z,30.02
2019-01-21T16:57:02.129Z,28.10
2019-01-21T16:59:29.556Z,26.48
2019-01-21T17:01:57.426Z,36.33
2019-01-21T17:04:24.597Z,59.08
2019-01-21T17:06:52.666Z,50.55
2019-01-21T17:09:19.734Z,38.83
2019-01-21T17:11:47.274Z,35.83
2019-01-21T17:14:14.699Z,30.17
2019-01-21T17:16:42.120Z,24.95
2019-01-21T17:19:09.760Z,29.45
2019-01-21T17:21:37.048Z,42.20
2019-01-21T17:24:04.658Z,49.63
2019-01-21T17:26:31.593Z,47.27
2019-01-21T17:28:58.672Z,46.15
2019-01-21T17:31:26.114Z,42.17
2019-01-21T17:33:54.124Z,43.85
2019-01-21T17:36:21.809Z,50.45
2019-01-21T17:38:49.258Z,37.28
2019-01-21T17:41:16.605Z,35.13
2019-01-21T17:43:45.303Z,36.93
2019-01-21T17:46:13.014Z,85.67
2019-01-21T17:48:43.237Z,91.60
2019-01-21T17:51:10.561Z,75.37
2019-01-21T17:53:38.824Z,70.17
2019-01-21T17:56:06.829Z,55.05
2019-01-21T17:58:34.372Z,49.05
2019-01-21T18:01:01.314Z,46.45
2019-01-21T18:03:29.096Z,39.42
2019-01-21T18:05:57.055Z,37.60
2019-01-21T18:08:24.322Z,53.10
2019-01-21T18:10:52.052Z,44.73
2019-01-21T18:13:19.738Z,45.45
2019-01-21T18:15:47.194Z,40.90
2019-01-21T18:18:15.097Z,38.48
2019-01-21T18:20:42.347Z,36.93
2019-01-21T18:23:10.061Z,39.08
2019-01-21T18:25:37.404Z,42.53
2019-01-21T18:28:04.569Z,39.95
2019-01-21T18:30:32.230Z,36.33
2019-01-21T18:32:59.128Z,39.70
2019-01-21T18:35:26.820Z,35.90
2019-01-21T18:37:54.073Z,32.75
2019-01-21T18:40:21.695Z,32.85
2019-01-21T18:42:49.359Z,28.83
2019-01-21T18:45:19.757Z,29.12
2019-01-21T18:47:48.369Z,35.25
2019-01-21T18:50:15.749Z,43.68
2019-01-21T18:52:43.310Z,29.98
2019-01-21T18:55:10.569Z,35.23
2019-01-21T18:57:38.213Z,48.48
2019-01-21T19:00:09.333Z,41.20
2019-01-21T19:02:36.853Z,34.88
2019-01-21T19:05:04.972Z,31.60
2019-01-21T19:07:32.198Z,33.00
2019-01-21T19:09:59.832Z,33.25
2019-01-21T19:12:27.356Z,35.30
2019-01-21T19:14:54.853Z,39.23
2019-01-21T19:17:22.466Z,42.25
2019-01-21T19:19:49.741Z,51.15
2019-01-21T19:22:17.274Z,47.23
2019-01-21T19:24:45.063Z,46.75
2019-01-21T19:27:15.168Z,39.80
2019-01-21T19:29:42.222Z,39.92
2019-01-21T19:32:10.085Z,38.17
2019-01-21T19:34:37.947Z,35.13
2019-01-21T19:37:05.537Z,32.53
2019-01-21T19:39:33.096Z,32.33
2019-01-21T19:42:00.930Z,33.40
2019-01-21T19:44:28.654Z,33.45
2019-01-21T19:46:56.254Z,44.27
2019-01-21T19:49:23.301Z,44.30
2019-01-21T19:51:50.982Z,36.50
2019-01-21T19:54:18.833Z,37.88
2019-01-21T19:56:46.435Z,33.65
2019-01-21T19:59:13.721Z,35.43
2019-01-21T20:01:41.658Z,29.82
2019-01-21T20:04:09.037Z,36.08
2019-01-21T20:06:36.421Z,43.25
2019-01-21T20:09:06.569Z,45.67
2019-01-21T20:11:34.996Z,32.10
2019-01-21T20:14:03.047Z,25.80
2019-01-21T20:16:30.945Z,28.02
2019-01-21T20:18:59.121Z,29.60
2019-01-21T20:21:26.945Z,34.27
2019-01-21T20:23:54.573Z,33.33
2019-01-21T20:26:22.177Z,34.08
2019-01-21T20:28:49.496Z,35.00
2019-01-21T20:31:17.337Z,34.92
2019-01-21T20:33:45.262Z,37.95
2019-01-21T20:36:13.119Z,34.70
2019-01-21T20:38:40.984Z,29.95
2019-01-21T20:41:08.667Z,35.90
2019-01-21T20:43:35.946Z,41.10
2019-01-21T20:46:03.273Z,36.83
2019-01-21T20:48:31.282Z,38.23
2019-01-21T20:50:59.075Z,34.92
2019-01-21T20:53:26.307Z,29.92
2019-01-21T20:55:54.062Z,29.65
2019-01-21T20:58:21.405Z,37.78
2019-01-21T21:00:49.035Z,34.08
2019-01-21T21:03:16.897Z,35.45
2019-01-21T21:05:43.986Z,35.05
2019-01-21T21:08:11.622Z,36.03
2019-01-21T21:10:39.534Z,35.60
2019-01-21T21:13:06.696Z,30.45
2019-01-21T21:15:34.295Z,35.65
2019-01-21T21:18:02.441Z,29.02
2019-01-21T21:20:29.985Z,24.72
2019-01-21T21:22:57.425Z,27.90
2019-01-21T21:25:25.120Z,30.25
2019-01-21T21:27:52.754Z,32.38
2019-01-21T21:30:25.441Z,31.30
2019-01-21T21:32:53.037Z,28.23
2019-01-21T21:35:20.979Z,29.57
2019-01-21T21:37:49.001Z,26.85
2019-01-21T21:40:17.101Z,28.52
2019-01-21T21:42:44.818Z,26.30
2019-01-21T21:45:13.441Z,26.17
2019-01-21T21:47:41.184Z,26.42
2019-01-21T21:50:11.885Z,25.65
2019-01-21T21:52:40.425Z,26.10
2019-01-21T21:55:08.821Z,24.82
2019-01-21T21:57:36.314Z,25.17
2019-01-21T22:00:05.847Z,25.40
2019-01-21T22:02:34.273Z,26.73
2019-01-21T22:05:02.527Z,24.50
2019-01-21T22:07:30.570Z,26.68
2019-01-21T22:09:58.388Z,28.30
2019-01-21T22:12:26.269Z,27.77
2019-01-21T22:14:53.737Z,26.87
2019-01-21T22:17:21.941Z,26.90
2019-01-21T22:19:49.674Z,23.50
2019-01-21T22:22:17.569Z,23.40
2019-01-21T22:24:45.618Z,28.27
2019-01-21T22:27:13.536Z,24.87
2019-01-21T22:29:41.473Z,26.17
2019-01-21T22:32:08.905Z,26.07
2019-01-21T22:34:36.731Z,24.60
2019-01-21T22:37:04.418Z,26.30
2019-01-21T22:39:32.430Z,30.40
2019-01-21T22:42:00.101Z,34.75
2019-01-21T22:44:27.593Z,37.10
2019-01-21T22:46:54.984Z,36.15
2019-01-21T22:49:23.069Z,33.20
2019-01-21T22:51:50.767Z,32.67
2019-01-21T22:54:17.961Z,39.38
2019-01-21T22:56:45.608Z,49.50
2019-01-21T22:59:12.988Z,47.98
2019-01-21T23:01:41.102Z,50.30
2019-01-21T23:04:08.541Z,44.03
2019-01-21T23:06:35.964Z,39.55
2019-01-21T23:09:07.375Z,41.48
2019-01-21T23:11:35.095Z,42.98
2019-01-21T23:14:02.436Z,40.98
2019-01-21T23:16:29.901Z,34.60
2019-01-21T23:18:57.804Z,30.52
2019-01-21T23:21:25.646Z,32.67
2019-01-21T23:23:53.094Z,28.73
2019-01-21T23:26:20.488Z,29.85
2019-01-21T23:28:47.965Z,29.57
2019-01-21T23:31:15.473Z,30.00
2019-01-21T23:33:42.908Z,28.95
2019-01-21T23:36:10.013Z,28.27
2019-01-21T23:38:37.582Z,30.55
2019-01-21T23:41:04.828Z,30.27
2019-01-21T23:43:32.585Z,26.12
2019-01-21T23:46:00.305Z,25.43
2019-01-21T23:48:27.666Z,25.60
2019-01-21T23:50:55.266Z,25.43
2019-01-21T23:53:22.661Z,28.30
2019-01-21T23:55:50.025Z,25.52
2019-01-21T23:58:17.230Z,27.07
